Other Surface Observations
Issued by NWS Great Falls, MT

Home | Current Version | Previous Version | Text Only | Print | Product List | Glossary On
Versions: 1 2 3 4 5 6 7 8 9 10 11 12 13 14 15 16 17 18 19 20 21 22 23 24 25 26 27 28 29 30 31 32 33 34 35 36 37 38 39 40 41 42 43 44 45 46 47 48 49 50
459
SXUS55 KTFX 290444
OSOTFX
AREA AWOS OBSERVATIONS
NATIONAL WEATHER SERVICE GREAT FALLS MT
1044 PM MDT TUE MAR 28 2017

METAR KPWD 290445Z AUTO 11005KT 2SM 02/02 A3008 RMK PLENTYWOOD
METAR KPO1 290445Z AUTO 13005KT 10SM 05/03 A3009 RMK POPLAR
METAR K1S3 290445Z AUTO 19007KT 10SM 07/03 A3009 RMK FORSYTH
METAR KS71 290445Z AUTO 21005KT 10SM 07/M04 A3003 RMK CHINOOK
METAR K79S 290445Z AUTO 10SM 07/M04 A3007 RMK FORT BENTON
METAR K38S 290445Z AUTO 35006KT 10SM 03/M04 A3019 RMK DEER LODGE
METAR K3U3 290445Z AUTO 28008KT 10SM 04/M06 A3016 RMK ANACONDA
METAR K6S5 290445Z AUTO 22003KT 10SM 07/M03 A3019 RMK HAMILTON
METAR K88M 290445Z AUTO 13006KT 10SM 06/M01 A3014 RMK EUREKA



USA.gov is the U.S. government's official web portal to all federal, state and local government web resources and services.